createdAt,value
2022-09-03T00:00:13.487Z,1.77
2022-09-03T00:02:46.059Z,1.33
2022-09-03T00:05:20.067Z,1.27
2022-09-03T00:07:57.227Z,0.97
2022-09-03T00:10:32.500Z,1.20
2022-09-03T00:13:04.835Z,1.67
2022-09-03T00:15:34.935Z,1.30
2022-09-03T00:18:07.535Z,1.10
2022-09-03T00:20:42.760Z,0.87
2022-09-03T00:23:15.621Z,1.80
2022-09-03T00:25:49.455Z,1.00
2022-09-03T00:28:24.246Z,1.03
2022-09-03T00:31:00.237Z,2.03
2022-09-03T00:33:33.081Z,0.90
2022-09-03T00:36:14.254Z,0.60
2022-09-03T00:38:41.933Z,0.87
2022-09-03T00:41:19.880Z,1.17
2022-09-03T00:44:06.273Z,1.67
2022-09-03T00:46:42.221Z,0.83
2022-09-03T00:49:33.135Z,1.70
2022-09-03T00:52:11.686Z,1.40
2022-09-03T00:54:49.003Z,1.13
2022-09-03T00:57:30.361Z,1.43
2022-09-03T01:00:06.174Z,1.17
2022-09-03T01:02:47.082Z,1.20
2022-09-03T01:05:29.961Z,1.13
2022-09-03T01:08:15.154Z,1.10
2022-09-03T01:10:54.350Z,1.23
2022-09-03T01:13:28.571Z,0.87
2022-09-03T01:16:10.836Z,2.00
2022-09-03T01:18:49.824Z,1.07
2022-09-03T01:21:44.755Z,0.87
2022-09-03T01:24:43.568Z,1.13
2022-09-03T01:27:28.356Z,1.07
2022-09-03T01:30:04.028Z,0.80
2022-09-03T01:32:42.905Z,1.47
2022-09-03T01:35:19.229Z,1.30
2022-09-03T01:38:03.903Z,0.90
2022-09-03T01:40:39.856Z,1.20
2022-09-03T01:43:35.971Z,1.40
2022-09-03T01:46:13.806Z,1.33
2022-09-03T01:48:47.254Z,1.00
2022-09-03T01:51:25.763Z,1.10
2022-09-03T01:54:21.052Z,0.90
2022-09-03T01:57:34.971Z,1.10
2022-09-03T02:00:08.101Z,1.30
2022-09-03T02:02:48.297Z,1.37
2022-09-03T02:05:19.211Z,0.93
2022-09-03T02:07:49.510Z,1.00
2022-09-03T02:10:19.588Z,1.53
2022-09-03T02:12:53.784Z,1.60
2022-09-03T02:15:24.056Z,1.23
2022-09-03T02:17:57.644Z,1.30
2022-09-03T02:20:28.523Z,1.17
2022-09-03T02:22:58.276Z,1.33
2022-09-03T02:25:32.308Z,1.60
2022-09-03T02:28:00.955Z,1.50
2022-09-03T02:30:28.684Z,2.10
2022-09-03T02:32:58.182Z,1.50
2022-09-03T02:35:25.881Z,1.20
2022-09-03T02:37:54.374Z,1.37
2022-09-03T02:40:22.030Z,1.30
2022-09-03T02:42:50.625Z,1.43
2022-09-03T02:45:27.978Z,1.60
2022-09-03T02:48:00.350Z,1.20
2022-09-03T02:50:28.515Z,1.00
2022-09-03T02:52:57.102Z,0.80
2022-09-03T02:55:24.802Z,1.50
2022-09-03T02:57:52.710Z,1.00
2022-09-03T03:00:20.343Z,0.97
2022-09-03T03:02:48.539Z,1.50
2022-09-03T03:05:27.594Z,1.50
2022-09-03T03:07:56.614Z,1.33
2022-09-03T03:10:26.489Z,1.30
2022-09-03T03:12:55.037Z,1.13
2022-09-03T03:15:23.031Z,2.30
2022-09-03T03:17:51.294Z,1.23
2022-09-03T03:20:20.267Z,0.83
2022-09-03T03:22:48.766Z,2.03
2022-09-03T03:25:16.600Z,1.27
2022-09-03T03:27:45.139Z,1.63
2022-09-03T03:30:13.633Z,1.80
2022-09-03T03:32:42.123Z,1.87
2022-09-03T03:35:11.798Z,1.83
2022-09-03T03:37:41.518Z,1.10
2022-09-03T03:40:10.658Z,1.20
2022-09-03T03:42:38.697Z,1.43
2022-09-03T03:45:07.311Z,1.57
2022-09-03T03:47:35.134Z,2.03
2022-09-03T03:50:03.122Z,1.53
2022-09-03T03:52:30.790Z,1.53
2022-09-03T03:55:00.285Z,1.50
2022-09-03T03:57:31.879Z,1.37
2022-09-03T03:59:59.570Z,1.87
2022-09-03T04:02:27.270Z,1.30
2022-09-03T04:04:54.986Z,1.40
2022-09-03T04:07:22.629Z,3.10
2022-09-03T04:09:50.630Z,2.40
2022-09-03T04:12:19.581Z,1.77
2022-09-03T04:14:47.903Z,2.23
2022-09-03T04:17:16.034Z,1.50
2022-09-03T04:19:44.103Z,1.00
2022-09-03T04:22:12.209Z,1.57
2022-09-03T04:24:39.858Z,1.30
2022-09-03T04:27:07.582Z,1.93
2022-09-03T04:29:36.678Z,1.60
2022-09-03T04:32:23.298Z,1.47
2022-09-03T04:34:51.614Z,2.37
2022-09-03T04:37:19.941Z,1.30
2022-09-03T04:39:48.973Z,1.20
2022-09-03T04:42:16.949Z,2.27
2022-09-03T04:44:46.437Z,1.50
2022-09-03T04:47:15.151Z,1.00
2022-09-03T04:49:42.839Z,1.63
2022-09-03T04:52:10.804Z,1.17
2022-09-03T04:54:38.425Z,1.37
2022-09-03T04:57:06.160Z,1.53
2022-09-03T04:59:33.808Z,2.13
2022-09-03T05:02:03.027Z,1.30
2022-09-03T05:04:31.199Z,1.20
2022-09-03T05:06:58.831Z,1.90
2022-09-03T05:09:26.865Z,1.87
2022-09-03T05:11:54.593Z,2.23
2022-09-03T05:14:23.552Z,1.73
2022-09-03T05:16:52.669Z,1.73
2022-09-03T05:19:22.544Z,1.87
2022-09-03T05:21:50.389Z,1.80
2022-09-03T05:24:19.013Z,2.57
2022-09-03T05:26:46.881Z,2.60
2022-09-03T05:29:16.390Z,1.70
2022-09-03T05:31:44.068Z,2.57
2022-09-03T05:34:16.441Z,3.00
2022-09-03T05:36:49.816Z,1.23
2022-09-03T05:39:17.773Z,2.20
2022-09-03T05:41:45.745Z,2.40
2022-09-03T05:44:13.764Z,2.00
2022-09-03T05:46:41.387Z,1.90
2022-09-03T05:49:09.461Z,1.77
2022-09-03T05:51:39.419Z,1.70
2022-09-03T05:54:09.125Z,1.10
2022-09-03T05:56:40.121Z,1.37
2022-09-03T05:59:09.346Z,2.00
2022-09-03T06:01:39.026Z,1.87
2022-09-03T06:04:09.066Z,1.67
2022-09-03T06:06:38.165Z,1.40
2022-09-03T06:09:08.686Z,1.40
2022-09-03T06:11:37.692Z,1.63
2022-09-03T06:14:08.876Z,1.30
2022-09-03T06:16:38.837Z,1.40
2022-09-03T06:19:10.206Z,2.03
2022-09-03T06:21:40.003Z,1.10
2022-09-03T06:24:10.533Z,1.93
2022-09-03T06:26:40.943Z,2.20
2022-09-03T06:29:11.721Z,2.00
2022-09-03T06:31:40.021Z,2.03
2022-09-03T06:34:08.617Z,2.47
2022-09-03T06:36:36.319Z,2.17
2022-09-03T06:39:04.711Z,2.40
2022-09-03T06:41:35.668Z,3.80
2022-09-03T06:44:06.409Z,2.10
2022-09-03T06:46:36.114Z,2.10
2022-09-03T06:49:04.001Z,2.83
2022-09-03T06:51:33.265Z,3.37
2022-09-03T06:54:03.810Z,2.47
2022-09-03T06:56:38.832Z,2.63
2022-09-03T06:59:08.776Z,2.60
2022-09-03T07:01:37.349Z,2.37
2022-09-03T07:04:08.908Z,2.40
2022-09-03T07:06:38.517Z,2.00
2022-09-03T07:09:07.278Z,1.73
2022-09-03T07:11:37.359Z,1.30
2022-09-03T07:14:06.367Z,2.20
2022-09-03T07:16:36.437Z,2.73
2022-09-03T07:19:05.326Z,1.67
2022-09-03T07:21:36.702Z,2.67
2022-09-03T07:24:06.482Z,1.67
2022-09-03T07:26:37.083Z,2.53
2022-09-03T07:29:05.603Z,4.33
2022-09-03T07:31:35.562Z,1.77
2022-09-03T07:34:09.945Z,2.93
2022-09-03T07:36:41.571Z,2.30
2022-09-03T07:39:11.358Z,2.23
2022-09-03T07:41:42.673Z,2.00
2022-09-03T07:44:11.108Z,3.37
2022-09-03T07:46:40.355Z,3.00
2022-09-03T07:49:09.504Z,2.90
2022-09-03T07:51:39.380Z,2.60
2022-09-03T07:54:11.682Z,2.50
2022-09-03T07:56:41.858Z,2.83
2022-09-03T07:59:10.070Z,2.83
2022-09-03T08:01:39.201Z,2.93
2022-09-03T08:04:11.664Z,2.40
2022-09-03T08:06:39.943Z,1.90
2022-09-03T08:09:10.433Z,2.87
2022-09-03T08:11:39.952Z,3.37
2022-09-03T08:14:11.165Z,3.10
2022-09-03T08:16:41.769Z,1.97
2022-09-03T08:19:11.621Z,2.60
2022-09-03T08:21:42.011Z,2.50
2022-09-03T08:24:11.003Z,2.70
2022-09-03T08:26:40.424Z,2.97
2022-09-03T08:29:10.480Z,3.00
2022-09-03T08:31:38.713Z,2.80
2022-09-03T08:34:08.543Z,2.43
2022-09-03T08:36:38.274Z,2.83
2022-09-03T08:39:10.527Z,1.90
2022-09-03T08:41:56.879Z,2.33
2022-09-03T08:44:31.470Z,2.40
2022-09-03T08:47:03.557Z,2.50
2022-09-03T08:49:39.555Z,2.63
2022-09-03T08:52:17.151Z,1.73
2022-09-03T08:54:45.899Z,1.53
2022-09-03T08:57:14.273Z,1.47
2022-09-03T08:59:43.693Z,1.30
2022-09-03T09:02:22.687Z,1.00
2022-09-03T09:05:00.483Z,0.83
2022-09-03T09:07:33.809Z,0.80
2022-09-03T09:10:11.438Z,1.00
2022-09-03T09:12:48.934Z,0.80
2022-09-03T09:15:29.655Z,1.10
2022-09-03T09:18:15.768Z,0.80
2022-09-03T09:20:50.167Z,0.50
2022-09-03T09:23:24.245Z,0.53
2022-09-03T09:25:57.212Z,0.70
2022-09-03T09:28:26.672Z,0.50
2022-09-03T09:30:58.260Z,0.60
2022-09-03T09:33:26.523Z,0.47
2022-09-03T09:35:54.129Z,1.70
2022-09-03T09:38:30.158Z,1.27
2022-09-03T09:40:59.798Z,0.77
2022-09-03T09:43:28.149Z,0.80
2022-09-03T09:46:08.514Z,0.50
2022-09-03T09:48:42.767Z,0.70
2022-09-03T09:51:12.610Z,0.73
2022-09-03T09:53:42.114Z,0.57
2022-09-03T09:56:09.941Z,0.70
2022-09-03T09:58:38.175Z,0.47
2022-09-03T10:01:14.026Z,0.60
2022-09-03T10:03:50.719Z,0.40
2022-09-03T10:06:38.337Z,0.40
2022-09-03T10:09:11.721Z,0.60
2022-09-03T10:11:42.608Z,0.50
2022-09-03T10:14:18.615Z,0.50
2022-09-03T10:16:51.430Z,0.50
2022-09-03T10:19:22.036Z,0.53
2022-09-03T10:21:56.038Z,0.83
2022-09-03T10:24:39.796Z,0.90
2022-09-03T10:27:12.568Z,0.50
2022-09-03T10:29:42.177Z,0.67
2022-09-03T10:32:24.095Z,0.77
2022-09-03T10:35:04.298Z,0.63
2022-09-03T10:37:39.524Z,0.43
2022-09-03T10:40:17.923Z,0.50
2022-09-03T10:42:52.980Z,0.43
2022-09-03T10:45:31.870Z,0.80
2022-09-03T10:48:38.682Z,0.60
2022-09-03T10:51:11.175Z,0.50
2022-09-03T10:53:51.485Z,0.50
2022-09-03T10:56:25.970Z,0.43
2022-09-03T10:59:05.712Z,0.60
2022-09-03T11:01:39.190Z,0.52
2022-09-03T11:04:23.343Z,0.70
2022-09-03T11:06:55.253Z,0.95
2022-09-03T11:09:28.018Z,0.50
2022-09-03T11:12:01.335Z,0.55
2022-09-03T11:14:35.751Z,0.50
2022-09-03T11:17:10.482Z,0.50
2022-09-03T11:19:48.521Z,0.90
2022-09-03T11:22:20.864Z,0.52
2022-09-03T11:24:55.742Z,0.55
2022-09-03T11:27:32.853Z,1.10
2022-09-03T11:30:07.078Z,0.60
2022-09-03T11:32:55.465Z,0.82
2022-09-03T11:35:29.604Z,0.60
2022-09-03T11:38:01.398Z,0.65
2022-09-03T11:40:35.872Z,0.45
2022-09-03T11:43:08.865Z,0.50
2022-09-03T11:45:39.040Z,0.50
2022-09-03T11:48:29.999Z,0.80
2022-09-03T11:50:58.967Z,0.57
2022-09-03T11:53:34.534Z,0.40
2022-09-03T11:56:18.166Z,0.43
2022-09-03T11:58:48.005Z,0.52
2022-09-03T12:01:18.225Z,0.70
2022-09-03T12:03:52.239Z,0.30
2022-09-03T12:06:44.089Z,0.45
2022-09-03T12:09:35.230Z,0.47
2022-09-03T12:12:15.623Z,0.40
2022-09-03T12:14:53.226Z,0.80
2022-09-03T12:17:29.446Z,0.50
2022-09-03T12:19:59.069Z,0.55
2022-09-03T12:22:30.077Z,1.00
2022-09-03T12:25:11.999Z,1.55
2022-09-03T12:27:40.236Z,0.70
2022-09-03T12:30:18.198Z,0.70
2022-09-03T12:32:48.312Z,0.40
2022-09-03T12:38:09.949Z,0.30
2022-09-03T12:43:40.821Z,0.30
2022-09-03T12:46:16.322Z,0.55
2022-09-03T12:51:52.542Z,0.40
2022-09-03T12:54:23.653Z,0.60
2022-09-03T12:56:57.444Z,0.60
2022-09-03T12:59:29.483Z,0.40
2022-09-03T13:02:03.548Z,0.50
2022-09-03T13:04:34.849Z,1.03
2022-09-03T13:07:05.127Z,0.80
2022-09-03T13:09:37.558Z,0.30
2022-09-03T13:12:06.010Z,0.30
2022-09-03T13:14:44.749Z,0.33
2022-09-03T13:17:27.090Z,0.50
2022-09-03T13:20:17.059Z,0.57
2022-09-03T13:23:00.935Z,0.87
2022-09-03T13:25:35.757Z,0.27
2022-09-03T13:28:15.067Z,1.57
2022-09-03T13:30:54.799Z,0.30
2022-09-03T13:33:26.603Z,0.43
2022-09-03T13:36:03.799Z,0.30
2022-09-03T13:38:37.497Z,0.30
2022-09-03T13:41:20.097Z,0.20
2022-09-03T13:43:54.334Z,0.30
2022-09-03T13:46:25.673Z,0.40
2022-09-03T13:49:18.753Z,0.70
2022-09-03T13:51:54.166Z,0.40
2022-09-03T13:54:48.101Z,0.27
2022-09-03T13:57:31.272Z,0.40
2022-09-03T14:00:05.335Z,0.53
2022-09-03T14:02:47.594Z,0.50
2022-09-03T14:05:24.731Z,0.90
2022-09-03T14:08:08.839Z,0.50
2022-09-03T14:10:54.030Z,1.57
2022-09-03T14:13:33.169Z,0.40
2022-09-03T14:16:08.379Z,0.40
2022-09-03T14:18:50.855Z,0.40
2022-09-03T14:21:23.654Z,0.40
2022-09-03T14:24:02.012Z,0.80
2022-09-03T14:26:39.095Z,0.50
2022-09-03T14:29:16.975Z,0.40
2022-09-03T14:32:05.165Z,0.60
2022-09-03T14:34:44.787Z,0.40
2022-09-03T14:37:30.471Z,0.70
2022-09-03T14:40:05.901Z,0.60
2022-09-03T14:42:49.116Z,0.50
2022-09-03T14:45:25.349Z,0.50
2022-09-03T14:48:08.935Z,0.60
2022-09-03T14:50:48.264Z,0.43
2022-09-03T14:53:28.627Z,0.77
2022-09-03T14:56:06.645Z,1.13
2022-09-03T14:58:49.076Z,0.40
2022-09-03T15:01:27.115Z,0.97
2022-09-03T15:04:10.175Z,0.43
2022-09-03T15:06:49.322Z,0.50
2022-09-03T15:09:28.466Z,0.40
2022-09-03T15:12:00.331Z,0.43
2022-09-03T15:14:36.077Z,0.60
2022-09-03T15:17:20.754Z,0.50
2022-09-03T15:20:04.947Z,0.70
2022-09-03T15:22:50.071Z,0.43
2022-09-03T15:25:27.229Z,0.30
2022-09-03T15:28:07.365Z,0.73
2022-09-03T15:30:40.530Z,0.40
2022-09-03T15:33:22.169Z,0.50
2022-09-03T15:36:08.962Z,0.70
2022-09-03T15:38:45.269Z,0.47
2022-09-03T15:41:34.817Z,0.40
2022-09-03T15:44:07.446Z,0.70
2022-09-03T15:46:52.270Z,0.50
2022-09-03T15:49:33.190Z,0.30
2022-09-03T15:52:10.081Z,0.70
2022-09-03T15:54:47.049Z,0.70
2022-09-03T15:57:21.846Z,0.40
2022-09-03T15:59:56.746Z,0.70
2022-09-03T16:02:33.368Z,0.47
2022-09-03T16:05:14.217Z,0.63
2022-09-03T16:08:05.998Z,0.63
2022-09-03T16:10:42.730Z,0.40
2022-09-03T16:13:28.565Z,0.37
2022-09-03T16:16:02.212Z,0.40
2022-09-03T16:18:36.712Z,0.73
2022-09-03T16:21:10.831Z,0.30
2022-09-03T16:23:43.934Z,1.00
2022-09-03T16:26:20.382Z,0.40
2022-09-03T16:28:53.485Z,1.00
2022-09-03T16:31:35.572Z,0.60
2022-09-03T16:34:16.705Z,0.70
2022-09-03T16:37:00.318Z,0.60
2022-09-03T16:39:40.694Z,0.60
2022-09-03T16:42:18.141Z,0.60
2022-09-03T16:45:00.839Z,0.40
2022-09-03T16:47:37.833Z,0.33
2022-09-03T16:50:19.730Z,0.50
2022-09-03T16:53:01.603Z,0.77
2022-09-03T16:55:40.994Z,0.70
2022-09-03T16:58:19.715Z,0.50
2022-09-03T17:01:00.440Z,0.53
2022-09-03T17:03:54.678Z,0.43
2022-09-03T17:06:42.929Z,0.50
2022-09-03T17:09:23.272Z,0.53
2022-09-03T17:12:03.857Z,0.30
2022-09-03T17:14:57.221Z,0.60
2022-09-03T17:17:47.915Z,0.70
2022-09-03T17:20:22.923Z,0.47
2022-09-03T17:23:01.381Z,0.50
2022-09-03T17:25:37.283Z,0.40
2022-09-03T17:28:21.443Z,0.30
2022-09-03T17:30:58.964Z,0.50
2022-09-03T17:33:56.427Z,0.40
2022-09-03T17:36:26.966Z,0.33
2022-09-03T17:39:13.989Z,0.47
2022-09-03T17:41:48.389Z,0.40
2022-09-03T17:44:24.284Z,0.47
2022-09-03T17:47:04.443Z,0.33
2022-09-03T17:49:35.510Z,0.40
2022-09-03T17:52:07.477Z,0.30
2022-09-03T17:54:43.903Z,0.60
2022-09-03T17:57:21.341Z,0.30
2022-09-03T17:59:57.455Z,0.50
2022-09-03T18:02:34.304Z,0.90
2022-09-03T18:05:07.770Z,0.43
2022-09-03T18:07:44.867Z,0.40
2022-09-03T18:10:25.360Z,0.50
2022-09-03T18:13:03.790Z,0.50
2022-09-03T18:15:37.318Z,0.50
2022-09-03T18:18:11.397Z,0.40
2022-09-03T18:21:22.379Z,0.40
2022-09-03T18:24:12.981Z,0.37
2022-09-03T18:27:05.042Z,0.70
2022-09-03T18:29:58.222Z,0.50
2022-09-03T18:32:44.638Z,0.53
2022-09-03T18:35:30.338Z,0.53
2022-09-03T18:38:15.863Z,0.70
2022-09-03T18:41:12.174Z,0.40
2022-09-03T18:44:07.433Z,0.40
2022-09-03T18:48:03.414Z,1.10
2022-09-03T18:50:17.211Z,0.70
2022-09-03T18:53:10.079Z,2.13
2022-09-03T18:56:06.041Z,3.30
2022-09-03T18:59:00.763Z,3.30
2022-09-03T19:01:52.612Z,2.83
2022-09-03T19:04:49.471Z,2.87
2022-09-03T19:07:42.129Z,3.77
2022-09-03T19:10:34.890Z,2.87
2022-09-03T19:13:39.235Z,1.83
2022-09-03T19:16:31.607Z,1.40
2022-09-03T19:19:36.340Z,1.17
2022-09-03T19:22:28.180Z,1.13
2022-09-03T19:25:19.907Z,1.00
2022-09-03T19:28:21.373Z,0.63
2022-09-03T19:31:16.741Z,0.93
2022-09-03T19:34:11.841Z,0.40
2022-09-03T19:37:05.389Z,0.90
2022-09-03T19:40:10.730Z,1.37
2022-09-03T19:43:07.626Z,0.90
2022-09-03T19:46:03.799Z,0.97
2022-09-03T19:48:59.098Z,0.50
2022-09-03T19:51:51.092Z,0.97
2022-09-03T19:54:40.431Z,0.60
2022-09-03T19:57:31.213Z,0.77
2022-09-03T20:00:17.829Z,0.87
2022-09-03T20:03:16.025Z,0.80
2022-09-03T20:06:03.452Z,0.60
2022-09-03T20:08:52.308Z,1.00
2022-09-03T20:11:22.551Z,0.40
2022-09-03T20:14:09.017Z,0.77
2022-09-03T20:16:44.289Z,1.30
2022-09-03T20:19:21.497Z,0.77
2022-09-03T20:21:53.947Z,1.37
2022-09-03T20:24:39.867Z,0.77
2022-09-03T20:27:23.225Z,1.47
2022-09-03T20:30:02.760Z,0.83
2022-09-03T20:32:46.222Z,1.63
2022-09-03T20:35:23.374Z,0.77
2022-09-03T20:37:57.623Z,0.70
2022-09-03T20:40:29.898Z,1.13
2022-09-03T20:43:12.654Z,0.70
2022-09-03T20:45:59.142Z,0.53
2022-09-03T20:48:37.071Z,0.40
2022-09-03T20:51:12.242Z,1.27
2022-09-03T20:54:02.073Z,0.73
2022-09-03T20:56:37.836Z,0.70
2022-09-03T20:59:14.738Z,1.03
2022-09-03T21:01:56.489Z,0.60
2022-09-03T21:04:37.480Z,0.50
2022-09-03T21:07:17.657Z,0.40
2022-09-03T21:09:53.270Z,0.57
2022-09-03T21:12:32.378Z,0.70
2022-09-03T21:15:04.558Z,0.90
2022-09-03T21:17:46.963Z,0.90
2022-09-03T21:20:23.393Z,0.73
2022-09-03T21:23:07.689Z,1.17
2022-09-03T21:25:43.722Z,0.90
2022-09-03T21:28:17.925Z,0.70
2022-09-03T21:30:50.399Z,1.20
2022-09-03T21:33:24.697Z,0.70
2022-09-03T21:36:00.017Z,0.40
2022-09-03T21:38:32.150Z,0.90
2022-09-03T21:41:11.203Z,0.60
2022-09-03T21:43:46.307Z,0.73
2022-09-03T21:46:16.966Z,0.30
2022-09-03T21:48:52.305Z,0.50
2022-09-03T21:51:25.581Z,0.50
2022-09-03T21:53:59.139Z,0.80
2022-09-03T21:57:00.617Z,0.40
2022-09-03T21:59:48.396Z,0.40
2022-09-03T22:02:23.059Z,0.70
2022-09-03T22:04:52.400Z,1.10
2022-09-03T22:07:27.493Z,1.20
2022-09-03T22:10:02.689Z,0.93
2022-09-03T22:12:34.817Z,0.90
2022-09-03T22:15:04.383Z,1.37
2022-09-03T22:17:41.413Z,0.97
2022-09-03T22:20:15.394Z,1.30
2022-09-03T22:22:47.783Z,1.00
2022-09-03T22:25:23.314Z,1.53
2022-09-03T22:28:00.833Z,1.20
2022-09-03T22:30:35.688Z,1.37
2022-09-03T22:33:11.214Z,1.83
2022-09-03T22:36:03.798Z,1.80
2022-09-03T22:39:08.621Z,0.70
2022-09-03T22:41:52.539Z,0.90
2022-09-03T22:44:34.747Z,1.20
2022-09-03T22:47:13.728Z,0.80
2022-09-03T22:49:52.339Z,1.40
2022-09-03T22:52:31.638Z,2.07
2022-09-03T22:55:16.339Z,1.40
2022-09-03T22:57:53.010Z,1.50
2022-09-03T23:00:21.128Z,0.70
2022-09-03T23:02:56.475Z,1.30
2022-09-03T23:05:43.778Z,1.00
2022-09-03T23:08:16.718Z,0.30
2022-09-03T23:10:55.691Z,0.40
2022-09-03T23:13:28.259Z,0.30
2022-09-03T23:16:02.118Z,0.50
2022-09-03T23:18:33.025Z,0.40
2022-09-03T23:21:07.732Z,0.67
2022-09-03T23:23:41.319Z,0.30
2022-09-03T23:26:17.265Z,0.40
2022-09-03T23:28:50.167Z,0.40
2022-09-03T23:31:22.511Z,0.60
2022-09-03T23:33:52.870Z,0.70
2022-09-03T23:36:57.918Z,0.37
2022-09-03T23:39:43.267Z,0.40
2022-09-03T23:42:19.227Z,0.50
2022-09-03T23:45:01.707Z,0.60
2022-09-03T23:47:41.101Z,0.60
2022-09-03T23:50:29.498Z,0.60
2022-09-03T23:53:11.294Z,0.70
2022-09-03T23:55:55.847Z,0.33
2022-09-03T23:58:39.267Z,0.47
